Data for 04/20/2014

Time Sea-Level Adjusted Pressure Absolute Pressure Temperature Relative Humidity Dew Point   
(mb) (inHg) (mb) (inHg) (C) (F) (%) (C) (F)
00:05 1014 29.94 843 24.89 10.8 51.4 29 -6.7 20
00:10 1014 29.94 843 24.89 10.6 51.1 29 -6.6 20.2
00:15 1014 29.94 843 24.89 10.5 51 28 -7 19.4
00:20 1014 29.94 843 24.89 10.6 51 29 -6.6 20.1
00:25 1014 29.94 843 24.89 10.2 50.4 30 -6.8 19.8
00:30 1014 29.94 843 24.89 10 49.9 29 -7.1 19.3
00:35 1014 29.94 843 24.89 10.3 50.6 28 -7.5 18.5
00:40 1014 29.94 843 24.89 10.7 51.3 26 -8 17.6
00:45 1014 29.94 843 24.89 10.9 51.7 26 -7.6 18.3
00:50 1014 29.94 843 24.89 11 51.7 25 -8.3 17.1
00:55 1014 29.94 843 24.89 11.3 52.3 26 -7.4 18.7
01:00 1014 29.94 843 24.89 11.1 51.9 26 -7.7 18.2
01:05 1014 29.94 843 24.89 10.8 51.4 28 -7 19.4
01:10 1014 29.94 843 24.89 10.4 50.8 29 -6.7 19.9
01:15 1014 29.94 843 24.89 10.3 50.5 29 -7 19.4
01:20 1014 29.94 843 24.89 10.3 50.6 29 -6.8 19.7
01:25 1014 29.94 843 24.89 10.8 51.4 27 -7.7 18.2
01:30 1014 29.94 843 24.89 11.3 52.3 24 -8.6 16.6
01:35 1014 29.94 843 24.89 11.8 53.2 25 -7.7 18.1
01:40 1014 29.94 843 24.89 11.4 52.5 26 -7.4 18.7
01:45 1014 29.94 843 24.89 11 51.7 27 -7.2 19.1
01:50 1014 29.94 843 24.89 10.4 50.8 30 -6.4 20.4
01:55 1014 29.94 843 24.89 10.3 50.5 28 -7.2 19
02:00 1014 29.94 843 24.89 10.2 50.4 30 -6.7 19.9
02:05 1015 29.97 844 24.92 10 50 31 -6.5 20.4
02:10 1015 29.97 844 24.92 10.3 50.5 27 -8 17.5
02:15 1015 29.97 844 24.92 10.7 51.2 27 -7.6 18.4
02:20 1015 29.97 845 24.95 10.4 50.6 28 -7.2 19
02:25 1015 29.97 845 24.95 10 49.9 30 -7 19.4
02:30 1015 29.97 845 24.95 9.6 49.4 30 -7 19.5
02:35 1016 30 845 24.95 9.5 49 31 -6.9 19.5
02:40 1016 30 845 24.95 9.3 48.8 31 -6.9 19.6
02:45 1016 30 845 24.95 9.2 48.5 33 -6.4 20.4
02:50 1016 30 845 24.95 8.9 48.1 33 -6.3 20.7
02:55 1016 30 845 24.95 8.7 47.7 33 -6.5 20.4
03:00 1016 30 846 24.98 8.6 47.6 34 -6.4 20.5
03:05 1017 30.03 846 24.98 8.6 47.5 33 -6.7 20
03:10 1017 30.03 846 24.98 8.7 47.6 34 -6.5 20.4
03:15 1017 30.03 846 24.98 8.6 47.5 34 -6.5 20.4
03:20 1017 30.03 846 24.98 8.5 47.2 35 -6.2 20.8
03:25 1017 30.03 847 25.01 8.2 46.7 37 -5.7 21.7
03:30 1018 30.06 847 25.01 7.6 45.7 39 -5.3 22.4
03:35 1018 30.06 847 25.01 7.4 45.4 38 -5.9 21.4
03:40 1018 30.06 847 25.01 7.7 45.8 37 -6 21.2
03:45 1018 30.06 847 25.01 7.7 45.9 38 -5.7 21.7
03:50 1018 30.06 847 25.01 7.7 45.8 39 -5.5 22.1
03:55 1018 30.06 847 25.01 7.5 45.6 41 -4.7 23.5
04:00 1018 30.06 847 25.01 7.3 45.1 44 -4.3 24.3
04:05 1018 30.06 847 25.01 7 44.7 47 -3.5 25.6
04:10 1018 30.06 848 25.04 6.7 44.1 48 -3.4 25.9
04:15 1018 30.06 848 25.04 6.5 43.7 50 -3.2 26.2
04:20 1018 30.06 848 25.04 6.4 43.5 50 -3.2 26.3
04:25 1019 30.09 848 25.04 6.2 43.2 52 -3 26.6
04:30 1019 30.09 848 25.04 6.1 43 52 -3 26.6
04:35 1019 30.09 848 25.04 6 42.8 53 -2.9 26.7
04:40 1019 30.09 848 25.04 5.9 42.6 53 -3 26.6
04:45 1019 30.09 848 25.04 5.9 42.6 53 -3.1 26.5
04:50 1019 30.09 848 25.04 6 42.7 52 -3 26.5
04:55 1019 30.09 848 25.04 6 42.8 53 -2.9 26.7
05:00 1019 30.09 848 25.04 5.9 42.7 53 -2.8 26.9
05:05 1019 30.09 848 25.04 5.8 42.5 54 -2.8 26.9
05:10 1019 30.09 848 25.04 5.7 42.2 55 -2.7 27.2
05:15 1019 30.09 848 25.04 5.5 41.8 56 -2.7 27.1
05:20 1019 30.09 848 25.04 5.3 41.5 57 -2.6 27.3
05:25 1019 30.09 848 25.04 5.2 41.3 57 -2.6 27.3
05:30 1019 30.09 849 25.07 5 41.1 58 -2.6 27.3
05:35 1019 30.09 849 25.07 4.9 40.8 58 -2.6 27.4
05:40 1020 30.12 849 25.07 4.8 40.6 59 -2.6 27.4
05:45 1020 30.12 849 25.07 4.6 40.3 59 -2.6 27.3
05:50 1020 30.12 849 25.07 4.5 40.1 60 -2.6 27.3
05:55 1020 30.12 849 25.07 4.5 40 60 -2.5 27.4
06:00 1020 30.12 849 25.07 4.4 39.8 62 -2.3 27.8
06:05 1020 30.12 849 25.07 4.1 39.4 62 -2.5 27.5
06:10 1020 30.12 849 25.07 4.2 39.6 61 -2.6 27.3
06:15 1020 30.12 849 25.07 4.6 40.3 60 -2.6 27.3
06:20 1020 30.12 850 25.1 4.9 40.9 58 -2.5 27.4
06:25 1020 30.12 850 25.1 5.2 41.4 58 -2.3 27.9
06:30 1020 30.12 850 25.1 5.3 41.6 58 -2.3 27.9
06:35 1020 30.12 850 25.1 5.4 41.8 57 -2.3 27.8
06:40 1020 30.12 850 25.1 5.6 42 57 -2.2 28.1
06:45 1020 30.12 850 25.1 5.7 42.2 56 -2.4 27.7
06:50 1021 30.15 850 25.1 5.9 42.7 55 -2.3 27.8
06:55 1021 30.15 850 25.1 6.1 43 56 -2 28.4
07:00 1021 30.15 850 25.1 6.3 43.4 54 -2.2 28
07:05 1021 30.15 850 25.1 6.8 44.2 54 -1.8 28.8
07:10 1021 30.15 850 25.1 6.6 43.9 54 -2.1 28.2
07:15 1021 30.15 850 25.1 6.7 44 52 -2.5 27.4
07:20 1021 30.15 850 25.1 7 44.5 51 -2.6 27.4
07:25 1021 30.15 850 25.1 7.5 45.4 48 -2.8 26.9
07:30 1021 30.15 850 25.1 7.4 45.4 50 -2.4 27.7
07:35 1021 30.15 850 25.1 7.5 45.4 49 -2.7 27.2
07:40 1021 30.15 850 25.1 7.4 45.3 49 -2.7 27.2
07:45 1021 30.15 850 25.1 7.4 45.3 47 -3.1 26.5
07:50 1021 30.15 850 25.1 7.9 46.3 47 -2.8 27
07:55 1021 30.15 850 25.1 8.3 47 45 -3 26.5
08:00 1021 30.15 850 25.1 7.9 46.2 46 -2.9 26.9
08:05 1021 30.15 850 25.1 8.4 47.1 45 -2.9 26.7
08:10 1021 30.15 850 25.1 8.9 48 42 -3.2 26.2
08:15 1021 30.15 851 25.13 9.2 48.5 42 -3 26.5
08:20 1021 30.15 851 25.13 9.5 49 41 -3 26.6
08:25 1021 30.15 851 25.13 9.8 49.6 39 -3.5 25.7
08:30 1021 30.15 851 25.13 10.1 50.2 39 -3.2 26.2
08:35 1021 30.15 851 25.13 10 50 36 -4.2 24.4
08:40 1021 30.15 851 25.13 9.9 49.9 38 -3.8 25.1
08:45 1022 30.18 851 25.13 9.9 49.8 36 -4.6 23.7
08:50 1021 30.15 851 25.13 10 49.9 35 -4.7 23.5
08:55 1021 30.15 851 25.13 10.5 50.8 34 -4.8 23.3
09:00 1021 30.15 851 25.13 10.3 50.5 34 -4.9 23.2
09:05 1021 30.15 851 25.13 10.1 50.2 33 -5.6 22
09:10 1021 30.15 851 25.13 10.1 50.2 33 -5.4 22.3
09:15 1022 30.18 851 25.13 10.5 50.9 32 -5.3 22.5
09:20 1022 30.18 851 25.13 11.1 52 31 -5.3 22.5
09:25 1022 30.18 851 25.13 11.4 52.5 30 -5.4 22.3
09:30 1022 30.18 851 25.13 11.7 53.1 30 -5.4 22.2
09:35 1022 30.18 851 25.13 11.4 52.6 28 -6.4 20.5
09:40 1022 30.18 851 25.13 11.8 53.2 28 -6 21.1
09:45 1022 30.18 851 25.13 12.1 53.7 27 -6.4 20.4
09:50 1022 30.18 851 25.13 11.7 53 28 -6.2 20.8
09:55 1022 30.18 851 25.13 11.4 52.5 30 -5.4 22.2
10:00 1022 30.18 851 25.13 10.9 51.7 30 -5.9 21.4
10:05 1022 30.18 851 25.13 11.2 52.1 31 -5.1 22.8
10:10 1022 30.18 851 25.13 10.5 50.9 30 -6.3 20.7
10:15 1022 30.18 851 25.13 11.2 52.2 26 -7.8 17.9
10:20 1022 30.18 851 25.13 12 53.5 23 -8.7 16.3
10:25 1022 30.18 851 25.13 12.3 54.1 22 -8.5 16.6
10:30 1022 30.18 851 25.13 12.7 54.8 24 -7.3 18.8
10:35 1022 30.18 851 25.13 12.9 55.1 21 -8.7 16.4
10:40 1022 30.18 851 25.13 12.7 54.9 20 -9.7 14.6
10:45 1022 30.18 851 25.13 13.2 55.7 20 -9 15.8
10:50 1022 30.18 851 25.13 13.1 55.6 21 -9 15.8
10:55 1022 30.18 851 25.13 13.3 55.9 20 -9.2 15.5
11:00 1022 30.18 851 25.13 13 55.4 20 -9.6 14.8
11:05 1022 30.18 851 25.13 13.2 55.8 20 -9.3 15.3
11:10 1022 30.18 851 25.13 13.1 55.5 19 -10.2 13.6
11:15 1022 30.18 851 25.13 13.4 56.1 19 -10 14
11:20 1022 30.18 851 25.13 13.2 55.8 18 -10.5 13
11:25 1022 30.18 851 25.13 13.2 55.7 18 -10.7 12.7
11:30 1022 30.18 851 25.13 13.1 55.5 17 -11.7 10.9
11:35 1022 30.18 851 25.13 13 55.5 18 -10.8 12.5
11:40 1022 30.18 851 25.13 13.9 57.1 15 -12 10.4
11:45 1022 30.18 851 25.13 14 57.2 15 -11.9 10.5
11:50 1022 30.18 851 25.13 13.7 56.7 15 -12.8 8.9
11:55 1022 30.18 851 25.13 13.9 56.9 15 -12.7 9.2
12:00 1022 30.18 851 25.13 14 57.2 14 -13.3 8.1
12:05 1022 30.18 851 25.13 13.9 57.1 13 -14 6.8
12:10 1022 30.18 851 25.13 14 57.2 13 -13.9 7.1
12:15 1022 30.18 851 25.13 14.3 57.8 14 -12.9 8.7
12:20 1021 30.15 851 25.13 14.1 57.3 15 -12.6 9.4
12:25 1021 30.15 851 25.13 14.2 57.6 15 -12.3 9.8
12:30 1021 30.15 851 25.13 14.7 58.5 15 -12 10.4
12:35 1021 30.15 851 25.13 14.7 58.5 14 -12.3 9.9
12:40 1021 30.15 851 25.13 14.8 58.6 13 -13.2 8.3
12:45 1021 30.15 851 25.13 14.5 58.1 14 -12.9 8.7
12:50 1021 30.15 851 25.13 14.7 58.5 13 -13.3 8.1
12:55 1021 30.15 851 25.13 14.7 58.4 14 -12.8 9
13:00 1021 30.15 851 25.13 14.9 58.9 13 -12.9 8.7
13:05 1021 30.15 850 25.1 15 59.1 13 -12.9 8.8
13:10 1021 30.15 850 25.1 14.6 58.3 13 -13.2 8.2
13:15 1021 30.15 850 25.1 14.8 58.7 14 -12.8 9
13:20 1021 30.15 851 25.13 14.9 58.8 13 -13.2 8.3
13:25 1021 30.15 851 25.13 14.9 58.7 13 -12.9 8.8
13:30 1021 30.15 851 25.13 15.3 59.5 13 -13 8.5
13:35 1022 30.18 851 25.13 15.6 60 12 -13.4 7.9
13:40 1022 30.18 851 25.13 15.4 59.7 13 -13.2 8.2
13:45 1022 30.18 851 25.13 15.5 60 12 -13.3 8
13:50 1022 30.18 851 25.13 15.5 60 12 -13.9 7.1
13:55 1021 30.15 851 25.13 15.7 60.3 12 -13.3 8.1
14:00 1021 30.15 851 25.13 15.5 59.9 12 -13.7 7.4
14:05 1022 30.18 851 25.13 15.7 60.3 11 -14.2 6.5
14:10 1021 30.15 851 25.13 15.9 60.7 12 -13.7 7.4
14:15 1021 30.15 851 25.13 15.9 60.7 12 -13.6 7.5
14:20 1021 30.15 851 25.13 16.1 60.9 12 -13.6 7.5
14:25 1021 30.15 851 25.13 15.9 60.7 11 -14 6.7
14:30 1021 30.15 851 25.13 15.9 60.7 11 -14.2 6.5
14:35 1021 30.15 850 25.1 16 60.8 11 -14.2 6.5
14:40 1021 30.15 850 25.1 15.8 60.4 11 -14.5 6
14:45 1021 30.15 850 25.1 15.5 59.9 12 -14.2 6.4
14:50 1021 30.15 850 25.1 15.7 60.3 11 -14.1 6.5
14:55 1021 30.15 850 25.1 15.8 60.4 11 -14.5 5.9
15:00 1021 30.15 851 25.13 15.8 60.4 11 -14.2 6.4
15:05 1021 30.15 850 25.1 15.5 59.9 11 -14.4 6.1
15:10 1021 30.15 850 25.1 15.7 60.3 11 -14.7 5.6
15:15 1021 30.15 850 25.1 15.9 60.6 11 -14.6 5.8
15:20 1021 30.15 850 25.1 16.2 61.1 11 -14.1 6.6
15:25 1021 30.15 850 25.1 15.9 60.6 11 -14.1 6.6
15:30 1021 30.15 850 25.1 16.1 60.9 12 -13.7 7.3
15:35 1021 30.15 850 25.1 16 60.9 12 -13.6 7.6
15:40 1021 30.15 850 25.1 16 60.8 12 -13.7 7.3
15:45 1021 30.15 850 25.1 16.3 61.3 11 -14.7 5.6
15:50 1021 30.15 850 25.1 16.3 61.3 11 -14.1 6.6
15:55 1021 30.15 850 25.1 16.5 61.6 11 -14 6.7
16:00 1021 30.15 850 25.1 16 60.8 11 -14.1 6.6
16:05 1021 30.15 850 25.1 16.1 60.9 11 -14.3 6.2
16:10 1021 30.15 850 25.1 16.2 61.1 11 -14.2 6.4
16:15 1021 30.15 850 25.1 16.2 61.2 11 -14.4 6.1
16:20 1021 30.15 850 25.1 16 60.8 11 -14.8 5.4
16:25 1021 30.15 850 25.1 15.9 60.7 11 -14.7 5.5
16:30 1021 30.15 850 25.1 16.1 61 11 -14.1 6.7
16:35 1021 30.15 850 25.1 16.2 61.1 11 -14.7 5.6
16:40 1021 30.15 850 25.1 16 60.8 10 -15.2 4.7
16:45 1021 30.15 850 25.1 15.8 60.4 11 -15.1 4.8
16:50 1021 30.15 850 25.1 15.7 60.3 10 -15.3 4.4
16:55 1021 30.15 851 25.13 15.7 60.3 10 -15.3 4.4
17:00 1021 30.15 851 25.13 15.7 60.3 10 -15.7 3.8
17:05 1021 30.15 851 25.13 15.5 59.9 11 -15.2 4.6
17:10 1021 30.15 850 25.1 15.5 59.9 11 -15 4.9
17:15 1021 30.15 850 25.1 15.1 59.3 11 -15.1 4.7
17:20 1021 30.15 851 25.13 15.2 59.3 11 -15.2 4.6
17:25 1021 30.15 851 25.13 15.5 60 11 -14.6 5.7
17:30 1021 30.15 851 25.13 15.6 60 11 -15 4.9
17:35 1021 30.15 851 25.13 15.3 59.6 11 -14.8 5.4
17:40 1021 30.15 851 25.13 15.1 59.2 12 -14.3 6.3
17:45 1022 30.18 851 25.13 14.9 58.9 12 -14.6 5.8
17:50 1022 30.18 851 25.13 14.9 58.8 12 -14.3 6.2
17:55 1021 30.15 851 25.13 14.8 58.6 12 -14.6 5.7
18:00 1021 30.15 851 25.13 14.7 58.4 12 -14.6 5.7
18:05 1022 30.18 851 25.13 14.7 58.4 12 -14.3 6.2
18:10 1021 30.15 851 25.13 14.4 57.9 12 -14.4 6
18:15 1022 30.18 851 25.13 14.1 57.4 13 -13.5 7.6
18:20 1022 30.18 851 25.13 14.1 57.3 12 -14.5 5.9
18:25 1022 30.18 851 25.13 13.9 57 13 -14.4 6.1
18:30 1022 30.18 851 25.13 13.8 56.9 13 -14.3 6.2
18:35 1022 30.18 851 25.13 13.7 56.6 13 -14 6.7
18:40 1022 30.18 851 25.13 13.5 56.4 14 -13.9 7
18:45 1022 30.18 851 25.13 13.4 56.1 14 -13.9 7
18:50 1022 30.18 851 25.13 13.1 55.7 14 -13.8 7.2
18:55 1022 30.18 851 25.13 13 55.4 14 -13.6 7.4
19:00 1022 30.18 851 25.13 12.9 55.2 15 -13.3 8.1
19:05 1022 30.18 851 25.13 12.8 55 15 -13.5 7.7
19:10 1022 30.18 851 25.13 12.6 54.6 15 -13.5 7.6
19:15 1022 30.18 851 25.13 12.4 54.3 15 -13.6 7.6
19:20 1022 30.18 851 25.13 12.3 54.1 15 -13.5 7.6
19:25 1022 30.18 852 25.16 12.2 53.9 15 -13.6 7.6
19:30 1022 30.18 852 25.16 12.1 53.7 16 -13.3 8.1
19:35 1023 30.21 852 25.16 11.9 53.4 17 -12.2 10
19:40 1023 30.21 852 25.16 11.6 52.9 17 -12.3 9.8
19:45 1023 30.21 852 25.16 11.5 52.8 18 -12.1 10.3
19:50 1023 30.21 852 25.16 11.4 52.5 19 -11.5 11.2
19:55 1023 30.21 852 25.16 11.1 52.1 20 -11.3 11.6
20:00 1023 30.21 852 25.16 11 51.7 20 -10.9 12.4
20:05 1023 30.21 852 25.16 10.8 51.4 21 -10.8 12.6
20:10 1023 30.21 852 25.16 10.7 51.2 21 -10.7 12.7
20:15 1023 30.21 852 25.16 10.5 50.9 22 -10.6 13
20:20 1023 30.21 852 25.16 9.9 49.8 26 -8.8 16.2
20:25 1023 30.21 853 25.19 8.6 47.6 26 -9.7 14.5
20:30 1023 30.21 853 25.19 8.6 47.5 27 -9.4 15.2
20:35 1023 30.21 853 25.19 8.6 47.4 26 -10 14
20:40 1024 30.24 853 25.19 8.6 47.4 26 -9.8 14.4
20:45 1024 30.24 853 25.19 8.5 47.3 26 -10.1 13.8
20:50 1024 30.24 853 25.19 8.7 47.6 25 -10.5 13.1
20:55 1024 30.24 853 25.19 9 48.2 24 -10.6 13
21:00 1024 30.24 853 25.19 9.1 48.4 23 -11 12.2
21:05 1024 30.24 853 25.19 9.1 48.3 24 -10.4 13.3
21:10 1024 30.24 853 25.19 8.8 47.8 25 -10.2 13.6
21:15 1024 30.24 853 25.19 8.6 47.5 26 -10.1 13.9
21:20 1024 30.24 853 25.19 8.1 46.5 29 -9.1 15.7
21:25 1024 30.24 853 25.19 7.4 45.4 30 -9 15.9
21:30 1024 30.24 853 25.19 7.1 44.7 32 -8.7 16.3
21:35 1024 30.24 853 25.19 6.8 44.2 32 -8.8 16.2
21:40 1024 30.24 853 25.19 6.6 43.8 32 -8.8 16.1
21:45 1024 30.24 853 25.19 6.4 43.5 32 -9 15.8
21:50 1024 30.24 853 25.19 6.2 43.2 32 -9.3 15.3
21:55 1024 30.24 853 25.19 6.2 43.2 33 -9.1 15.7
22:00 1024 30.24 853 25.19 6 42.8 33 -9 15.9
22:05 1024 30.24 853 25.19 5.6 42.2 35 -8.5 16.7
22:10 1024 30.24 853 25.19 5.3 41.5 35 -9 15.8
22:15 1024 30.24 853 25.19 5.4 41.7 35 -8.7 16.3
22:20 1024 30.24 853 25.19 5.1 41.2 38 -8 17.6
22:25 1024 30.24 853 25.19 4.5 40.1 40 -8.1 17.4
22:30 1024 30.24 853 25.19 4.5 40 35 -9.6 14.7
22:35 1024 30.24 853 25.19 5.1 41.2 33 -9.9 14.1
22:40 1024 30.24 853 25.19 5.4 41.7 33 -9.6 14.7
22:45 1024 30.24 853 25.19 5.5 41.9 33 -9.7 14.5
22:50 1024 30.24 853 25.19 5.4 41.8 33 -9.6 14.7
22:55 1024 30.24 853 25.19 5.4 41.7 33 -9.7 14.6
23:00 1024 30.24 853 25.19 5.3 41.5 33 -9.7 14.6
23:05 1024 30.24 853 25.19 5 40.9 36 -9 15.8
23:10 1024 30.24 853 25.19 4.5 40.1 38 -8.7 16.3
23:15 1024 30.24 853 25.19 4.3 39.7 38 -8.9 16
23:20 1024 30.24 853 25.19 4.2 39.6 38 -9 15.8
23:25 1024 30.24 853 25.19 4.3 39.7 38 -9 15.8
23:30 1024 30.24 853 25.19 4.2 39.6 38 -8.8 16.1
23:35 1024 30.24 853 25.19 4.2 39.6 37 -9.2 15.5
23:40 1024 30.24 853 25.19 4.3 39.8 37 -9.2 15.4
23:45 1024 30.24 853 25.19 4.4 39.8 36 -9.3 15.3
23:50 1024 30.24 853 25.19 4.2 39.6 37 -9.1 15.7
23:55 1024 30.24 854 25.22 4.1 39.4 37 -9.2 15.4
24:00 1024 30.24 853 25.19 4.2 39.5 36 -9.5 14.9